sensor_id;sensor_type;location;lat;lon;timestamp;pressure;altitude;pressure_sealevel;temperature;humidity
58973;BME280;44750;52.040;7.472;2023-04-29T00:01:29;100503.50;;;11.92;0.00
58973;BME280;44750;52.040;7.472;2023-04-29T00:06:29;100512.81;;;11.89;0.00
58973;BME280;44750;52.040;7.472;2023-04-29T00:11:29;100513.00;;;11.87;0.00
58973;BME280;44750;52.040;7.472;2023-04-29T00:16:29;100518.72;;;11.84;0.00
58973;BME280;44750;52.040;7.472;2023-04-29T00:21:30;100488.97;;;11.50;0.00
58973;BME280;44750;52.040;7.472;2023-04-29T00:26:30;100516.75;;;11.44;0.00
58973;BME280;44750;52.040;7.472;2023-04-29T00:31:30;100527.72;;;11.34;0.00
58973;BME280;44750;52.040;7.472;2023-04-29T00:36:30;100551.53;;;11.22;0.00
58973;BME280;44750;52.040;7.472;2023-04-29T00:41:31;100577.78;;;11.21;0.00
58973;BME280;44750;52.040;7.472;2023-04-29T00:46:32;100615.38;;;11.25;0.00
58973;BME280;44750;52.040;7.472;2023-04-29T00:51:32;100637.78;;;11.27;0.00
58973;BME280;44750;52.040;7.472;2023-04-29T00:56:34;100662.81;;;11.29;0.00
58973;BME280;44750;52.040;7.472;2023-04-29T01:01:35;100672.63;;;11.21;0.00
58973;BME280;44750;52.040;7.472;2023-04-29T01:06:57;100697.00;;;11.21;0.00
58973;BME280;44750;52.040;7.472;2023-04-29T01:17:24;100732.72;;;11.17;0.00
58973;BME280;44750;52.040;7.472;2023-04-29T01:22:24;100737.25;;;11.16;0.00
58973;BME280;44750;52.040;7.472;2023-04-29T01:42:46;100795.25;;;11.06;0.00
58973;BME280;44750;52.040;7.472;2023-04-29T01:47:50;100805.00;;;10.98;0.00
58973;BME280;44750;52.040;7.472;2023-04-29T01:52:52;100796.91;;;10.88;0.00
58973;BME280;44750;52.040;7.472;2023-04-29T01:57:52;100826.19;;;10.85;0.00
58973;BME280;44750;52.040;7.472;2023-04-29T02:02:52;100824.00;;;10.70;0.00
58973;BME280;44750;52.040;7.472;2023-04-29T02:07:52;100847.59;;;10.78;0.00
58973;BME280;44750;52.040;7.472;2023-04-29T02:12:53;100871.84;;;10.70;0.00
58973;BME280;44750;52.040;7.472;2023-04-29T02:17:53;100900.38;;;10.64;0.00
58973;BME280;44750;52.040;7.472;2023-04-29T02:22:53;100935.28;;;10.67;0.00
58973;BME280;44750;52.040;7.472;2023-04-29T02:27:53;100955.09;;;10.68;0.00
58973;BME280;44750;52.040;7.472;2023-04-29T02:32:54;100974.56;;;10.71;0.00
58973;BME280;44750;52.040;7.472;2023-04-29T02:37:54;100992.38;;;10.74;0.00
58973;BME280;44750;52.040;7.472;2023-04-29T02:42:54;101012.47;;;10.81;0.00
58973;BME280;44750;52.040;7.472;2023-04-29T02:47:54;101000.13;;;10.69;0.00
58973;BME280;44750;52.040;7.472;2023-04-29T02:52:55;101025.63;;;10.66;0.00
58973;BME280;44750;52.040;7.472;2023-04-29T02:57:55;101048.56;;;10.72;0.00
58973;BME280;44750;52.040;7.472;2023-04-29T03:02:55;101043.72;;;10.66;0.00
58973;BME280;44750;52.040;7.472;2023-04-29T03:07:55;101054.53;;;10.66;0.00
58973;BME280;44750;52.040;7.472;2023-04-29T03:12:56;101068.78;;;10.78;0.00
58973;BME280;44750;52.040;7.472;2023-04-29T03:17:56;101069.06;;;10.75;0.00
58973;BME280;44750;52.040;7.472;2023-04-29T03:22:56;101071.94;;;10.73;0.00
58973;BME280;44750;52.040;7.472;2023-04-29T03:27:56;101061.66;;;10.67;0.00
58973;BME280;44750;52.040;7.472;2023-04-29T03:32:56;101072.06;;;10.71;0.00
58973;BME280;44750;52.040;7.472;2023-04-29T03:37:57;101077.63;;;10.70;0.00
58973;BME280;44750;52.040;7.472;2023-04-29T03:42:57;101079.63;;;10.68;0.00
58973;BME280;44750;52.040;7.472;2023-04-29T03:47:57;101064.41;;;10.57;0.00
58973;BME280;44750;52.040;7.472;2023-04-29T03:52:57;101059.41;;;10.52;0.00
58973;BME280;44750;52.040;7.472;2023-04-29T03:57:58;101065.13;;;10.49;0.00
58973;BME280;44750;52.040;7.472;2023-04-29T04:02:58;101068.25;;;10.45;0.00
58973;BME280;44750;52.040;7.472;2023-04-29T04:07:58;101078.22;;;10.44;0.00
58973;BME280;44750;52.040;7.472;2023-04-29T04:12:59;101095.31;;;10.54;0.00
58973;BME280;44750;52.040;7.472;2023-04-29T04:17:59;101073.81;;;10.43;0.00
58973;BME280;44750;52.040;7.472;2023-04-29T04:22:59;101088.31;;;10.42;0.00
58973;BME280;44750;52.040;7.472;2023-04-29T04:27:59;101099.16;;;10.42;0.00
58973;BME280;44750;52.040;7.472;2023-04-29T04:33:00;101110.97;;;10.51;0.00
58973;BME280;44750;52.040;7.472;2023-04-29T04:38:00;101066.81;;;10.21;0.00
58973;BME280;44750;52.040;7.472;2023-04-29T04:43:00;101083.88;;;10.21;0.00
58973;BME280;44750;52.040;7.472;2023-04-29T04:48:01;101097.56;;;10.20;0.00
58973;BME280;44750;52.040;7.472;2023-04-29T04:53:01;101117.19;;;10.22;0.00
58973;BME280;44750;52.040;7.472;2023-04-29T04:58:01;101110.66;;;10.05;0.00
58973;BME280;44750;52.040;7.472;2023-04-29T05:03:02;101155.66;;;10.26;0.00
58973;BME280;44750;52.040;7.472;2023-04-29T05:08:02;101140.56;;;10.13;0.00
58973;BME280;44750;52.040;7.472;2023-04-29T05:13:02;101163.91;;;10.14;0.00
58973;BME280;44750;52.040;7.472;2023-04-29T05:18:03;101191.38;;;10.19;0.00
58973;BME280;44750;52.040;7.472;2023-04-29T05:23:03;101188.13;;;10.16;0.00
58973;BME280;44750;52.040;7.472;2023-04-29T05:28:03;101203.75;;;10.12;0.00
58973;BME280;44750;52.040;7.472;2023-04-29T05:33:03;101224.88;;;10.18;0.00
58973;BME280;44750;52.040;7.472;2023-04-29T05:38:04;101230.53;;;10.15;0.00
58973;BME280;44750;52.040;7.472;2023-04-29T05:43:04;101248.03;;;10.11;0.00
58973;BME280;44750;52.040;7.472;2023-04-29T05:48:04;101262.28;;;10.13;0.00
58973;BME280;44750;52.040;7.472;2023-04-29T05:53:05;101280.34;;;10.13;0.00
58973;BME280;44750;52.040;7.472;2023-04-29T05:58:05;101290.75;;;10.08;0.00
58973;BME280;44750;52.040;7.472;2023-04-29T06:03:05;101301.97;;;10.03;0.00
58973;BME280;44750;52.040;7.472;2023-04-29T06:08:05;101346.31;;;10.21;0.00
58973;BME280;44750;52.040;7.472;2023-04-29T06:13:06;101339.16;;;10.11;0.00
58973;BME280;44750;52.040;7.472;2023-04-29T06:18:06;101333.56;;;10.02;0.00
58973;BME280;44750;52.040;7.472;2023-04-29T06:23:06;101338.38;;;9.99;0.00
58973;BME280;44750;52.040;7.472;2023-04-29T06:28:06;101348.59;;;9.74;0.00
58973;BME280;44750;52.040;7.472;2023-04-29T06:33:06;101362.47;;;9.81;0.00
58973;BME280;44750;52.040;7.472;2023-04-29T06:38:07;101403.56;;;9.96;0.00
58973;BME280;44750;52.040;7.472;2023-04-29T06:43:07;101417.00;;;10.07;0.00
58973;BME280;44750;52.040;7.472;2023-04-29T06:48:07;101428.63;;;10.19;0.00
58973;BME280;44750;52.040;7.472;2023-04-29T06:53:07;101433.84;;;10.32;0.00
58973;BME280;44750;52.040;7.472;2023-04-29T06:58:08;101407.75;;;10.31;0.00
58973;BME280;44750;52.040;7.472;2023-04-29T07:03:08;101404.00;;;10.22;0.00
58973;BME280;44750;52.040;7.472;2023-04-29T07:08:08;101419.84;;;10.27;0.00
58973;BME280;44750;52.040;7.472;2023-04-29T07:13:11;101403.41;;;10.18;0.00
58973;BME280;44750;52.040;7.472;2023-04-29T07:18:12;101431.19;;;10.42;0.00
58973;BME280;44750;52.040;7.472;2023-04-29T07:23:13;101425.44;;;10.56;0.00
58973;BME280;44750;52.040;7.472;2023-04-29T07:28:13;101426.75;;;10.71;0.00
58973;BME280;44750;52.040;7.472;2023-04-29T07:33:13;101388.53;;;10.65;0.00
58973;BME280;44750;52.040;7.472;2023-04-29T07:38:13;101363.91;;;10.68;0.00
58973;BME280;44750;52.040;7.472;2023-04-29T07:43:14;101343.78;;;10.61;0.00
58973;BME280;44750;52.040;7.472;2023-04-29T07:48:14;101294.47;;;10.47;0.00
58973;BME280;44750;52.040;7.472;2023-04-29T07:53:14;101276.84;;;10.53;0.00
58973;BME280;44750;52.040;7.472;2023-04-29T07:58:14;101326.22;;;11.06;0.00
58973;BME280;44750;52.040;7.472;2023-04-29T08:03:14;101305.13;;;11.19;0.00
58973;BME280;44750;52.040;7.472;2023-04-29T08:08:15;101262.06;;;11.16;0.00
58973;BME280;44750;52.040;7.472;2023-04-29T08:13:15;101231.66;;;11.32;0.00
58973;BME280;44750;52.040;7.472;2023-04-29T08:18:15;101187.44;;;11.21;0.00
58973;BME280;44750;52.040;7.472;2023-04-29T08:23:16;101163.59;;;11.35;0.00
58973;BME280;44750;52.040;7.472;2023-04-29T08:28:16;101124.03;;;11.42;0.00
58973;BME280;44750;52.040;7.472;2023-04-29T08:33:16;101091.34;;;11.53;0.00
58973;BME280;44750;52.040;7.472;2023-04-29T08:38:17;101071.63;;;11.79;0.00
58973;BME280;44750;52.040;7.472;2023-04-29T08:43:18;101004.97;;;11.77;0.00
58973;BME280;44750;52.040;7.472;2023-04-29T08:48:19;100980.31;;;11.98;0.00
58973;BME280;44750;52.040;7.472;2023-04-29T08:53:20;100910.28;;;11.83;0.00
58973;BME280;44750;52.040;7.472;2023-04-29T08:58:20;100894.97;;;12.10;0.00
58973;BME280;44750;52.040;7.472;2023-04-29T09:03:43;100831.72;;;11.92;0.00
58973;BME280;44750;52.040;7.472;2023-04-29T09:08:46;100842.66;;;12.26;0.00
58973;BME280;44750;52.040;7.472;2023-04-29T09:13:46;100796.53;;;12.34;0.00
58973;BME280;44750;52.040;7.472;2023-04-29T09:18:47;100798.06;;;12.88;6.77
58973;BME280;44750;52.040;7.472;2023-04-29T09:23:53;100758.88;;;13.15;19.26
58973;BME280;44750;52.040;7.472;2023-04-29T09:29:10;100704.69;;;13.30;31.91
58973;BME280;44750;52.040;7.472;2023-04-29T09:34:11;100640.13;;;13.24;45.62
58973;BME280;44750;52.040;7.472;2023-04-29T09:39:21;100636.16;;;13.68;52.28
58973;BME280;44750;52.040;7.472;2023-04-29T09:44:22;100557.91;;;13.70;65.76
58973;BME280;44750;52.040;7.472;2023-04-29T09:49:25;100529.75;;;13.63;73.23
58973;BME280;44750;52.040;7.472;2023-04-29T09:54:28;100441.16;;;13.29;83.85
58973;BME280;44750;52.040;7.472;2023-04-29T09:59:28;100449.91;;;13.56;86.39
58973;BME280;44750;52.040;7.472;2023-04-29T10:04:31;100430.63;;;13.88;92.42
58973;BME280;44750;52.040;7.472;2023-04-29T10:09:35;100340.16;;;13.71;100.00
58973;BME280;44750;52.040;7.472;2023-04-29T10:14:40;100321.28;;;13.70;100.00
58973;BME280;44750;52.040;7.472;2023-04-29T10:19:57;100301.00;;;13.96;100.00
58973;BME280;44750;52.040;7.472;2023-04-29T10:25:00;100297.53;;;14.32;100.00
58973;BME280;44750;52.040;7.472;2023-04-29T10:30:01;100243.75;;;14.04;100.00
58973;BME280;44750;52.040;7.472;2023-04-29T10:35:01;100263.66;;;14.34;100.00
58973;BME280;44750;52.040;7.472;2023-04-29T10:40:22;100264.38;;;14.43;100.00
58973;BME280;44750;52.040;7.472;2023-04-29T10:45:28;100265.59;;;14.55;100.00
58973;BME280;44750;52.040;7.472;2023-04-29T10:50:30;100272.47;;;14.66;100.00
58973;BME280;44750;52.040;7.472;2023-04-29T10:55:35;100288.78;;;14.81;100.00
58973;BME280;44750;52.040;7.472;2023-04-29T11:00:36;100231.31;;;14.98;100.00
58973;BME280;44750;52.040;7.472;2023-04-29T11:05:36;100248.53;;;14.83;100.00
58973;BME280;44750;52.040;7.472;2023-04-29T11:10:40;100255.69;;;14.84;100.00
58973;BME280;44750;52.040;7.472;2023-04-29T11:15:43;100235.31;;;14.80;100.00
58973;BME280;44750;52.040;7.472;2023-04-29T11:26:05;100215.53;;;14.57;100.00
58973;BME280;44750;52.040;7.472;2023-04-29T11:31:06;100241.44;;;14.82;100.00
58973;BME280;44750;52.040;7.472;2023-04-29T11:36:06;100243.97;;;15.05;100.00
58973;BME280;44750;52.040;7.472;2023-04-29T11:41:10;100247.44;;;15.14;100.00
58973;BME280;44750;52.040;7.472;2023-04-29T11:46:12;100262.97;;;14.99;100.00
58973;BME280;44750;52.040;7.472;2023-04-29T11:51:13;100281.31;;;15.05;100.00
58973;BME280;44750;52.040;7.472;2023-04-29T11:56:13;100267.75;;;15.12;100.00
58973;BME280;44750;52.040;7.472;2023-04-29T12:01:14;100275.56;;;15.00;100.00
58973;BME280;44750;52.040;7.472;2023-04-29T12:06:14;100278.22;;;14.93;100.00
58973;BME280;44750;52.040;7.472;2023-04-29T12:11:15;100297.91;;;15.10;100.00
58973;BME280;44750;52.040;7.472;2023-04-29T12:16:16;100277.41;;;15.14;100.00
58973;BME280;44750;52.040;7.472;2023-04-29T12:21:16;100292.47;;;15.10;100.00
58973;BME280;44750;52.040;7.472;2023-04-29T12:26:17;100247.34;;;15.08;100.00
58973;BME280;44750;52.040;7.472;2023-04-29T12:31:17;100258.19;;;15.23;100.00
58973;BME280;44750;52.040;7.472;2023-04-29T12:36:18;100261.69;;;15.38;100.00
58973;BME280;44750;52.040;7.472;2023-04-29T12:41:18;100230.84;;;15.37;100.00
58973;BME280;44750;52.040;7.472;2023-04-29T12:46:19;100269.22;;;15.36;100.00
58973;BME280;44750;52.040;7.472;2023-04-29T12:51:21;100246.94;;;15.32;100.00
58973;BME280;44750;52.040;7.472;2023-04-29T12:56:21;100247.16;;;15.31;100.00
58973;BME280;44750;52.040;7.472;2023-04-29T13:01:21;100258.19;;;15.23;100.00
58973;BME280;44750;52.040;7.472;2023-04-29T13:06:22;100268.38;;;15.57;100.00
58973;BME280;44750;52.040;7.472;2023-04-29T13:11:22;100267.03;;;15.46;100.00
58973;BME280;44750;52.040;7.472;2023-04-29T13:16:22;100287.06;;;16.10;100.00
58973;BME280;44750;52.040;7.472;2023-04-29T13:21:23;100263.03;;;16.34;100.00
58973;BME280;44750;52.040;7.472;2023-04-29T13:26:23;100286.50;;;16.21;100.00
58973;BME280;44750;52.040;7.472;2023-04-29T13:31:23;100291.97;;;16.70;100.00
58973;BME280;44750;52.040;7.472;2023-04-29T13:36:23;100236.56;;;15.43;100.00
58973;BME280;44750;52.040;7.472;2023-04-29T13:41:24;100289.59;;;15.62;100.00
58973;BME280;44750;52.040;7.472;2023-04-29T13:46:26;100285.94;;;15.76;100.00
58973;BME280;44750;52.040;7.472;2023-04-29T13:51:26;100348.25;;;16.58;100.00
58973;BME280;44750;52.040;7.472;2023-04-29T13:56:26;100222.00;;;15.85;100.00
58973;BME280;44750;52.040;7.472;2023-04-29T14:01:27;100384.06;;;16.34;100.00
58973;BME280;44750;52.040;7.472;2023-04-29T14:06:27;100292.59;;;16.65;100.00
58973;BME280;44750;52.040;7.472;2023-04-29T14:11:27;100283.19;;;16.26;100.00
58973;BME280;44750;52.040;7.472;2023-04-29T14:16:28;100289.06;;;16.30;100.00
58973;BME280;44750;52.040;7.472;2023-04-29T14:21:29;100276.66;;;16.27;100.00
58973;BME280;44750;52.040;7.472;2023-04-29T14:26:30;100302.09;;;16.28;100.00
58973;BME280;44750;52.040;7.472;2023-04-29T14:31:33;100299.34;;;16.28;100.00
58973;BME280;44750;52.040;7.472;2023-04-29T14:36:35;100300.41;;;15.98;100.00
58973;BME280;44750;52.040;7.472;2023-04-29T14:41:35;100381.72;;;16.31;100.00
58973;BME280;44750;52.040;7.472;2023-04-29T14:46:36;100308.94;;;15.67;100.00
58973;BME280;44750;52.040;7.472;2023-04-29T14:51:36;100406.84;;;15.55;100.00
58973;BME280;44750;52.040;7.472;2023-04-29T14:56:36;100428.72;;;15.40;100.00
58973;BME280;44750;52.040;7.472;2023-04-29T15:01:36;100460.34;;;15.19;100.00
58973;BME280;44750;52.040;7.472;2023-04-29T15:06:37;100482.50;;;15.46;100.00
58973;BME280;44750;52.040;7.472;2023-04-29T15:11:38;100452.22;;;15.41;100.00
58973;BME280;44750;52.040;7.472;2023-04-29T15:16:38;100466.28;;;15.60;100.00
58973;BME280;44750;52.040;7.472;2023-04-29T15:21:38;100426.78;;;15.55;100.00
58973;BME280;44750;52.040;7.472;2023-04-29T15:26:39;100465.34;;;15.67;100.00
58973;BME280;44750;52.040;7.472;2023-04-29T15:31:39;100436.00;;;15.54;100.00
58973;BME280;44750;52.040;7.472;2023-04-29T15:36:40;100517.19;;;16.04;100.00
58973;BME280;44750;52.040;7.472;2023-04-29T15:41:40;100439.72;;;16.05;100.00
58973;BME280;44750;52.040;7.472;2023-04-29T15:46:41;100439.31;;;16.08;100.00
58973;BME280;44750;52.040;7.472;2023-04-29T15:51:41;100390.28;;;15.78;100.00
58973;BME280;44750;52.040;7.472;2023-04-29T15:56:41;100404.84;;;15.64;100.00
58973;BME280;44750;52.040;7.472;2023-04-29T16:01:41;100421.28;;;15.70;100.00
58973;BME280;44750;52.040;7.472;2023-04-29T16:06:41;100408.94;;;15.75;100.00
58973;BME280;44750;52.040;7.472;2023-04-29T16:11:42;100381.13;;;15.86;100.00
58973;BME280;44750;52.040;7.472;2023-04-29T16:16:42;100401.91;;;15.65;100.00
58973;BME280;44750;52.040;7.472;2023-04-29T16:21:42;100379.88;;;15.45;100.00
58973;BME280;44750;52.040;7.472;2023-04-29T16:26:43;100364.88;;;15.34;100.00
58973;BME280;44750;52.040;7.472;2023-04-29T16:31:43;100454.84;;;15.49;100.00
58973;BME280;44750;52.040;7.472;2023-04-29T16:36:43;100358.19;;;15.37;100.00
58973;BME280;44750;52.040;7.472;2023-04-29T16:41:43;100440.09;;;15.44;100.00
58973;BME280;44750;52.040;7.472;2023-04-29T16:46:44;100401.44;;;15.62;100.00
58973;BME280;44750;52.040;7.472;2023-04-29T16:51:44;100428.66;;;15.92;100.00
58973;BME280;44750;52.040;7.472;2023-04-29T16:56:44;100375.84;;;15.41;100.00
58973;BME280;44750;52.040;7.472;2023-04-29T17:01:45;100434.53;;;15.74;100.00
58973;BME280;44750;52.040;7.472;2023-04-29T17:06:45;100350.47;;;15.62;100.00
58973;BME280;44750;52.040;7.472;2023-04-29T17:11:45;100404.63;;;15.65;100.00
58973;BME280;44750;52.040;7.472;2023-04-29T17:16:46;100358.47;;;15.64;100.00
58973;BME280;44750;52.040;7.472;2023-04-29T17:21:46;100414.19;;;15.54;100.00
58973;BME280;44750;52.040;7.472;2023-04-29T17:26:46;100360.44;;;15.12;100.00
58973;BME280;44750;52.040;7.472;2023-04-29T17:31:46;100467.56;;;15.27;100.00
58973;BME280;44750;52.040;7.472;2023-04-29T17:36:47;100440.91;;;15.08;100.00
58973;BME280;44750;52.040;7.472;2023-04-29T17:41:47;100465.72;;;15.13;100.00
58973;BME280;44750;52.040;7.472;2023-04-29T17:46:47;100476.69;;;14.90;100.00
58973;BME280;44750;52.040;7.472;2023-04-29T17:51:47;100523.91;;;15.05;100.00
58973;BME280;44750;52.040;7.472;2023-04-29T17:56:48;100453.38;;;14.72;100.00
58973;BME280;44750;52.040;7.472;2023-04-29T18:01:48;100483.31;;;14.57;100.00
58973;BME280;44750;52.040;7.472;2023-04-29T18:06:48;100518.91;;;14.32;100.00
58973;BME280;44750;52.040;7.472;2023-04-29T18:11:48;100550.84;;;13.92;100.00
58973;BME280;44750;52.040;7.472;2023-04-29T18:16:49;100600.38;;;13.87;100.00
58973;BME280;44750;52.040;7.472;2023-04-29T18:21:49;100683.06;;;13.78;100.00
58973;BME280;44750;52.040;7.472;2023-04-29T18:26:49;100679.31;;;13.71;100.00
58973;BME280;44750;52.040;7.472;2023-04-29T18:31:49;100667.81;;;13.52;100.00
58973;BME280;44750;52.040;7.472;2023-04-29T18:36:50;100681.44;;;13.19;100.00
58973;BME280;44750;52.040;7.472;2023-04-29T18:41:50;100701.13;;;13.13;100.00
58973;BME280;44750;52.040;7.472;2023-04-29T18:46:51;100743.25;;;13.09;100.00
58973;BME280;44750;52.040;7.472;2023-04-29T18:51:51;100736.44;;;12.97;100.00
58973;BME280;44750;52.040;7.472;2023-04-29T18:56:51;100733.72;;;12.88;100.00
58973;BME280;44750;52.040;7.472;2023-04-29T19:01:51;100702.47;;;12.68;100.00
58973;BME280;44750;52.040;7.472;2023-04-29T19:06:52;100711.97;;;12.64;100.00
58973;BME280;44750;52.040;7.472;2023-04-29T19:11:55;100705.84;;;12.62;100.00
58973;BME280;44750;52.040;7.472;2023-04-29T19:16:55;100687.16;;;12.50;100.00
58973;BME280;44750;52.040;7.472;2023-04-29T19:21:56;100678.78;;;12.35;100.00
58973;BME280;44750;52.040;7.472;2023-04-29T19:26:56;100702.13;;;12.12;100.00
58973;BME280;44750;52.040;7.472;2023-04-29T19:31:57;100753.78;;;12.02;100.00
58973;BME280;44750;52.040;7.472;2023-04-29T19:36:58;100771.13;;;11.83;100.00
58973;BME280;44750;52.040;7.472;2023-04-29T19:41:58;100778.13;;;11.67;100.00
58973;BME280;44750;52.040;7.472;2023-04-29T19:46:58;100796.16;;;11.77;100.00
58973;BME280;44750;52.040;7.472;2023-04-29T19:51:59;100772.50;;;11.61;100.00
58973;BME280;44750;52.040;7.472;2023-04-29T19:56:59;100789.41;;;11.36;100.00
58973;BME280;44750;52.040;7.472;2023-04-29T20:01:59;100799.81;;;11.23;100.00
58973;BME280;44750;52.040;7.472;2023-04-29T20:07:00;100805.63;;;11.28;100.00
58973;BME280;44750;52.040;7.472;2023-04-29T20:12:00;100799.50;;;11.08;100.00
58973;BME280;44750;52.040;7.472;2023-04-29T20:17:00;100782.31;;;10.81;100.00
58973;BME280;44750;52.040;7.472;2023-04-29T20:22:00;100786.69;;;10.64;100.00
58973;BME280;44750;52.040;7.472;2023-04-29T20:27:01;100740.09;;;10.43;100.00
58973;BME280;44750;52.040;7.472;2023-04-29T20:32:03;100748.69;;;10.28;100.00
58973;BME280;44750;52.040;7.472;2023-04-29T20:37:03;100724.13;;;10.12;100.00
58973;BME280;44750;52.040;7.472;2023-04-29T20:42:03;100691.78;;;9.92;100.00
58973;BME280;44750;52.040;7.472;2023-04-29T20:47:04;100711.34;;;10.04;100.00
58973;BME280;44750;52.040;7.472;2023-04-29T20:52:04;100686.78;;;9.87;100.00
58973;BME280;44750;52.040;7.472;2023-04-29T20:57:04;100634.56;;;9.59;100.00
58973;BME280;44750;52.040;7.472;2023-04-29T21:02:04;100642.72;;;9.49;100.00
58973;BME280;44750;52.040;7.472;2023-04-29T21:07:05;100589.84;;;9.09;100.00
58973;BME280;44750;52.040;7.472;2023-04-29T21:12:05;100627.56;;;9.29;100.00
58973;BME280;44750;52.040;7.472;2023-04-29T21:17:05;100635.56;;;9.20;98.94
58973;BME280;44750;52.040;7.472;2023-04-29T21:22:06;100650.59;;;9.33;95.47
58973;BME280;44750;52.040;7.472;2023-04-29T21:27:06;100634.91;;;8.89;93.48
58973;BME280;44750;52.040;7.472;2023-04-29T21:32:07;100666.72;;;9.05;88.46
58973;BME280;44750;52.040;7.472;2023-04-29T21:37:07;100647.56;;;8.98;85.36
58973;BME280;44750;52.040;7.472;2023-04-29T21:42:08;100656.19;;;9.02;84.48
58973;BME280;44750;52.040;7.472;2023-04-29T21:47:09;100651.38;;;8.96;81.53
58973;BME280;44750;52.040;7.472;2023-04-29T21:52:09;100642.75;;;8.82;80.45
58973;BME280;44750;52.040;7.472;2023-04-29T21:57:09;100638.78;;;8.57;76.61
58973;BME280;44750;52.040;7.472;2023-04-29T22:02:10;100649.56;;;8.67;71.78
58973;BME280;44750;52.040;7.472;2023-04-29T22:07:10;100645.88;;;8.68;69.07
58973;BME280;44750;52.040;7.472;2023-04-29T22:12:10;100645.88;;;8.68;67.27
58973;BME280;44750;52.040;7.472;2023-04-29T22:17:11;100653.25;;;8.76;66.58
58973;BME280;44750;52.040;7.472;2023-04-29T22:22:12;100646.56;;;8.70;67.79
58973;BME280;44750;52.040;7.472;2023-04-29T22:27:12;100668.16;;;8.90;67.45
58973;BME280;44750;52.040;7.472;2023-04-29T22:32:12;100671.69;;;8.90;68.31
58973;BME280;44750;52.040;7.472;2023-04-29T22:37:13;100673.81;;;9.06;68.79
58973;BME280;44750;52.040;7.472;2023-04-29T22:42:13;100686.16;;;9.28;70.08
58973;BME280;44750;52.040;7.472;2023-04-29T22:47:13;100693.81;;;9.43;71.91
58973;BME280;44750;52.040;7.472;2023-04-29T22:52:13;100691.81;;;9.35;75.70
58973;BME280;44750;52.040;7.472;2023-04-29T22:57:14;100675.94;;;9.12;79.37
58973;BME280;44750;52.040;7.472;2023-04-29T23:02:14;100688.91;;;8.99;82.29
58973;BME280;44750;52.040;7.472;2023-04-29T23:07:14;100667.16;;;8.91;81.50
58973;BME280;44750;52.040;7.472;2023-04-29T23:12:15;100677.53;;;8.95;82.26
58973;BME280;44750;52.040;7.472;2023-04-29T23:17:16;100697.56;;;9.02;83.60
58973;BME280;44750;52.040;7.472;2023-04-29T23:22:16;100702.53;;;8.97;83.99
58973;BME280;44750;52.040;7.472;2023-04-29T23:27:16;100701.66;;;8.97;84.57
58973;BME280;44750;52.040;7.472;2023-04-29T23:32:16;100699.81;;;8.87;85.66
58973;BME280;44750;52.040;7.472;2023-04-29T23:37:16;100712.06;;;8.92;85.46
58973;BME280;44750;52.040;7.472;2023-04-29T23:42:17;100713.91;;;8.81;85.79
58973;BME280;44750;52.040;7.472;2023-04-29T23:47:17;100720.28;;;8.80;86.02
58973;BME280;44750;52.040;7.472;2023-04-29T23:52:17;100711.91;;;8.83;84.76
58973;BME280;44750;52.040;7.472;2023-04-29T23:57:17;100722.56;;;8.95;84.27
